EHEHLEAL

Guest
Details From EHEH - Eindhoven
To LEAL - Alicante
Flight Number -
Tags Generated
Created
Modified
Stats Distance 829 nm / 1,535 km
Max Altitude 0 ft / 0 m
Waypoints 5
Social Downloads 5
Likes 0
Share VATSIM

Download

Looking for another format? Having issues loading an existing format? Contact us
Advertisement - Login to hide

Notes

Generated

Route

EHEH AV MOPAS R2305 LEAL

ID Type Via Altitude Latitude Longitude Leg Dist Tot Dist Heading (true) Name
O EHEH APT - 0 ft / 0 m 51.43909˚ 5.36214˚ - 0 nm - -
AV NDB - 0 ft / 0 m 46.88167˚ 2.92889˚ 289 nm 289 nm 200° / 198° Avord NDB
MOPAS FIX - 0 ft / 0 m 42.43538˚ 1.03436˚ 279 nm 568 nm 198° / 196° -
R2305 FIX - 0 ft / 0 m 38.28452˚ -0.57500˚ 259 nm 828 nm 197° / 196° -
O LEAL APT - 0 ft / 0 m 38.28452˚ -0.57500˚ 0 nm 828 nm 270° / 270° -

Altitude Profile

Advertisement - Login to hide

Weather


0- 5 10 15 20 25 30 35+ Temperature / ° C

Clouds and Precipitation
Forecast for 2017-12-12 06:00 UTC. Updated 2 hours ago

Ground ~20,000 ft ~40,000 ft Winds

EHEH

Details ICAO EHEH (EIN)
Name Eindhoven
Region Netherlands
Timezone Europe/Amsterdam (UTC+1.0)
Stats Elevation 74 ft / 23 m (AMSL)
Location 51.450133° 5.374513°
Runways 1
Magnetic Variation 1.370° E

METAR

EHEH 120255Z AUTO 26008KT 240V300 9999 OVC120 01/M00 Q0995 BLU

Decode

TAF

TAF EHEH 112357Z 1200/1306 31010KT 9999 FEW010 SCT013 BKN016 PROB30 1200/1203 4000 BR SCT007 SCT010 BECMG 1203/1205 25009KT FEW015 SCT030 PROB40 TEMPO 1209/1218 4000 SHRASN SCT008 SCT015CB BKN020 BECMG 1221/1224 19012KT

Decode

Departure Runways

ID Width Length Bearing (true) Bearing (mag) Surface Threshold Offset Overrun Length
03 148 ft / 45 m 9,832 ft / 2,997 m 34.92° 33.55° Asphalt 821 ft / 250 m 0 ft / 0 m
21 148 ft / 45 m 9,832 ft / 2,997 m 214.94° 213.57° Asphalt 821 ft / 250 m 0 ft / 0 m

LEAL

Details ICAO LEAL (ALC)
Name Alicante
Region Spain
Timezone Europe/Madrid (UTC+1.0)
Stats Elevation 141 ft / 43 m (AMSL)
Location 38.282169° -0.558157°
Runways 1
Magnetic Variation 0.183° E

METAR

LEAL 120300Z 26006KT 210V280 CAVOK 07/02 Q1008 NOSIG

Decode

TAF

TAF TAF LEAL 112300Z 1200/1224 30007KT 9999 FEW030 SCT050 TX16/1212Z TN06/1206Z TEMPO 1212/1218 13007KT

Decode

Destination Runways

ID Width Length Bearing (true) Bearing (mag) Surface Threshold Offset Overrun Length
10 148 ft / 45 m 9,799 ft / 2,987 m 100.07° 99.89° Asphalt 0 ft / 0 m 164 ft / 50 m
28 148 ft / 45 m 9,799 ft / 2,987 m 280.09° 279.91° Asphalt 0 ft / 0 m 197 ft / 60 m

Approach Navaids

Runway Type Ident Frequency Range Bearing (true) Bearing (mag) Slope Elevation
10 Localiser IAT 110.30 MHz 18 nm / 33 km 100.09° 99.91° - 29 ft / 9 m (AMSL)
10 Glidescope IAT 110.30 MHz 10 nm / 19 km 100.09° 99.91° 3.00° 129 ft / 39 m (AMSL)
10 DME IAT 110.30 MHz 18 nm / 33 km - - - 129 ft / 39 m (AMSL)

Popular Alternatives